Time;durP1;ratioP1;P1;durP2;ratioP2;P2;SDS_P1;SDS_P2;PMS_P1;PMS_P2;Temp;Humidity;BMP_temperature;BMP_pressure;BME280_temperature;BME280_humidity;BME280_pressure;Samples;Min_cycle;Max_cycle;Signal;HPM_P1;HPM_P2
2022/07/27 00:01:22;;;;;;;;;;;;;;;;;;;;;
2022/07/27 00:29:44;;;;;;;1.23;0.85;;;14.70;99.90;;;;;;5568971;22;20134;-87
2022/07/27 00:37:11;;;;;;;;;;;;;;;;;;;;;
2022/07/27 02:03:21;;;;;;;0.20;0.20;;;13.10;99.90;;;;;;4873827;29;20101;-87
2022/07/27 02:06:45;;;;;;;;;;;;;;;;;;;;;
2022/07/27 02:33:30;;;;;;;2.50;0.30;;;12.60;99.90;;;;;;4859912;29;20048;-86
2022/07/27 02:53:57;;;;;;;1.05;0.30;;;12.40;99.90;;;;;;4708407;30;20049;-86
2022/07/27 02:57:03;;;;;;;;;;;;;;;;;;;;;
2022/07/27 05:47:22;;;;;;;;;;;;;;;;;;;;;
2022/07/27 06:39:32;;;;;;;0.30;0.20;;;16.30;99.90;;;;;;6304058;22;20461;-91
2022/07/27 07:35:28;;;;;;;2.88;0.32;;;16.10;99.90;;;;;;6321778;22;20022;-85
2022/07/27 07:44:35;;;;;;;2.78;0.40;;;15.70;99.90;;;;;;6273469;22;20011;-90
2022/07/27 07:47:01;;;;;;;3.15;0.30;;;16.10;99.90;;;;;;6249297;22;20023;-87
2022/07/27 07:49:29;;;;;;;3.10;0.30;;;16.30;99.90;;;;;;6275483;22;20050;-88
2022/07/27 07:51:54;;;;;;;2.03;0.30;;;16.30;99.90;;;;;;6248940;22;20027;-87
2022/07/27 07:58:13;;;;;;;2.20;0.30;;;16.60;99.90;;;;;;6274790;22;20050;-87
2022/07/27 08:01:14;;;;;;;;;;;;;;;;;;;;;
2022/07/27 08:03:51;;;;;;;2.22;0.30;;;16.70;99.90;;;;;;6058007;23;20013;-86
2022/07/27 08:09:04;;;;;;;1.92;0.43;;;16.70;99.90;;;;;;6326568;22;20027;-90
2022/07/27 08:27:53;;;;;;;2.78;0.68;;;16.60;99.90;;;;;;6342017;22;20045;-88
2022/07/27 08:31:40;;;;;;;;;;;;;;;;;;;;;
2022/07/27 08:35:14;;;;;;;4.30;0.50;;;17.00;99.90;;;;;;6216671;23;20530;-86
2022/07/27 08:38:32;;;;;;;;;;;;;;;;;;;;;
2022/07/27 08:47:53;;;;;;;;;;;17.50;99.90;;;;;;6122368;23;20053;-86
2022/07/27 08:51:20;;;;;;;;;;;;;;;;;;;;;
2022/07/27 09:01:41;;;;;;;1.33;0.30;;;18.30;99.90;;;;;;5980867;24;20452;-85
2022/07/27 09:04:27;;;;;;;;;;;;;;;;;;;;;
2022/07/27 09:07:03;;;;;;;3.63;0.20;;;18.50;99.90;;;;;;5905326;24;20005;-86
2022/07/27 09:09:46;;;;;;;0.85;0.20;;;18.60;99.90;;;;;;5929448;24;20021;-86
2022/07/27 09:12:32;;;;;;;0.35;0.13;;;18.60;99.90;;;;;;5929979;24;20088;-86
2022/07/27 09:15:18;;;;;;;2.25;0.73;;;18.80;99.90;;;;;;6037122;23;20015;-86
2022/07/27 09:17:45;;;;;;;1.45;0.20;;;18.90;99.90;;;;;;6013416;23;20016;-85
2022/07/27 09:20:28;;;;;;;0.47;0.20;;;19.00;99.40;;;;;;6013652;23;20038;-86
2022/07/27 09:22:57;;;;;;;0.43;0.13;;;19.30;99.90;;;;;;6037281;23;20023;-87
2022/07/27 09:25:32;;;;;;;1.65;0.22;;;19.00;99.90;;;;;;6037051;23;20123;-85
2022/07/27 09:28:08;;;;;;;1.38;0.30;;;19.20;99.60;;;;;;6029680;23;20159;-85
2022/07/27 09:30:41;;;;;;;1.23;0.20;;;19.60;98.90;;;;;;6180780;23;20032;-85
2022/07/27 09:33:07;;;;;;;0.88;0.20;;;19.70;99.30;;;;;;6187891;23;20579;-85
2022/07/27 09:35:43;;;;;;;2.17;0.20;;;19.80;98.90;;;;;;6212858;23;20024;-86
2022/07/27 09:38:51;;;;;;;2.83;0.30;;;20.00;98.20;;;;;;6213075;23;20024;-85
2022/07/27 09:41:20;;;;;;;0.77;0.25;;;20.00;97.70;;;;;;6146316;23;20023;-86
2022/07/27 09:43:59;;;;;;;0.95;0.20;;;20.10;97.60;;;;;;6158026;23;20021;-87
2022/07/27 09:46:53;;;;;;;1.70;0.20;;;20.20;97.00;;;;;;6157987;23;20440;-85
2022/07/27 09:49:32;;;;;;;1.40;0.20;;;20.30;97.10;;;;;;6154541;23;20052;-85
2022/07/27 09:52:01;;;;;;;2.55;0.30;;;20.40;97.90;;;;;;6157962;23;20079;-85
2022/07/27 09:54:47;;;;;;;0.40;0.20;;;20.40;98.00;;;;;;6157844;23;20356;-85
2022/07/27 09:57:15;;;;;;;0.68;0.20;;;20.30;97.70;;;;;;6182075;23;20013;-85
2022/07/27 09:59:41;;;;;;;0.88;0.30;;;20.40;98.50;;;;;;6182697;23;20029;-85
2022/07/27 10:02:07;;;;;;;0.50;0.20;;;20.30;97.60;;;;;;6157774;23;20111;-86
2022/07/27 10:04:33;;;;;;;0.80;0.20;;;20.20;96.20;;;;;;6182538;23;20021;-85
2022/07/27 10:07:00;;;;;;;0.60;0.17;;;20.30;97.70;;;;;;6133058;23;20013;-85
2022/07/27 10:09:33;;;;;;;0.40;0.20;;;20.50;98.30;;;;;;6187386;22;20017;-85
2022/07/27 10:12:00;;;;;;;1.38;0.30;;;20.80;96.60;;;;;;6305961;22;20055;-87
2022/07/27 10:14:32;;;;;;;2.15;0.30;;;20.70;96.00;;;;;;6281427;22;20050;-85
2022/07/27 10:17:15;;;;;;;1.23;0.20;;;20.80;95.90;;;;;;6305804;22;20449;-86
2022/07/27 10:19:49;;;;;;;1.00;0.20;;;20.90;96.10;;;;;;6306055;22;20094;-85
2022/07/27 10:22:15;;;;;;;2.05;0.22;;;21.30;94.10;;;;;;6307248;22;20022;-85
2022/07/27 10:24:42;;;;;;;3.17;0.20;;;21.20;94.20;;;;;;6305549;22;20023;-84
2022/07/27 10:27:36;;;;;;;4.28;0.22;;;21.00;94.50;;;;;;6305430;22;20019;-85
2022/07/27 10:30:04;;;;;;;1.63;0.20;;;20.60;94.00;;;;;;6305497;22;20156;-86
2022/07/27 10:32:36;;;;;;;0.60;0.10;;;20.90;95.50;;;;;;6307277;22;20015;-85
2022/07/27 10:35:25;;;;;;;1.02;0.22;;;21.40;95.50;;;;;;6305081;22;20464;-85
2022/07/27 12:34:13;;;;;;;1.30;0.30;;;21.90;91.00;;;;;;6325258;22;20445;-86
2022/07/27 12:36:42;;;;;;;1.63;0.20;;;21.90;91.40;;;;;;6339505;22;20400;-84
2022/07/27 12:39:23;;;;;;;2.70;0.30;;;22.10;90.80;;;;;;6311999;22;20015;-84
2022/07/27 12:42:02;;;;;;;1.55;0.20;;;22.00;90.90;;;;;;6337885;22;20448;-84
2022/07/27 12:44:33;;;;;;;1.92;0.22;;;22.60;90.80;;;;;;6339525;22;20069;-84
2022/07/27 12:50:02;;;;;;;2.60;0.25;;;22.50;89.70;;;;;;6339611;22;20018;-84
2022/07/27 12:52:28;;;;;;;0.57;0.20;;;22.40;89.90;;;;;;6339800;22;20137;-84
2022/07/27 12:54:54;;;;;;;1.73;0.20;;;22.70;90.10;;;;;;6337517;22;20449;-85
2022/07/27 12:57:20;;;;;;;2.20;0.73;;;22.30;90.10;;;;;;6311650;22;20314;-83
2022/07/27 12:59:45;;;;;;;2.42;0.22;;;22.20;91.40;;;;;;6337268;22;20019;-84
2022/07/27 13:02:11;;;;;;;1.23;0.30;;;22.10;90.60;;;;;;6337891;22;20010;-86
2022/07/27 13:04:37;;;;;;;3.30;0.30;;;22.20;91.90;;;;;;6339053;22;20022;-84
2022/07/27 13:07:03;;;;;;;3.63;0.30;;;22.50;91.20;;;;;;6339121;22;20030;-84
2022/07/27 13:09:34;;;;;;;0.90;0.20;;;22.60;91.20;;;;;;6337852;22;20329;-84
2022/07/27 13:12:00;;;;;;;0.90;0.10;;;22.50;90.20;;;;;;6337623;22;20022;-85
2022/07/27 13:14:26;;;;;;;1.67;0.22;;;22.70;90.20;;;;;;6337483;22;20507;-84
2022/07/27 13:16:52;;;;;;;2.53;0.32;;;22.80;90.40;;;;;;6337857;22;20019;-86
2022/07/27 13:19:18;;;;;;;1.65;0.40;;;22.80;89.50;;;;;;6337075;22;20029;-85
2022/07/27 13:21:44;;;;;;;4.35;0.32;;;23.00;90.10;;;;;;6339086;22;20014;-88
2022/07/27 13:30:56;;;;;;;4.05;0.32;;;23.40;90.00;;;;;;6338848;22;20013;-87
2022/07/27 13:33:24;;;;;;;3.38;0.30;;;23.30;89.90;;;;;;6337399;22;20341;-86
2022/07/27 13:35:52;;;;;;;2.97;0.30;;;23.00;87.10;;;;;;6336944;22;20018;-86
2022/07/27 13:38:18;;;;;;;0.90;0.30;;;22.90;87.80;;;;;;6337164;22;20025;-84
2022/07/27 13:40:44;;;;;;;5.18;0.25;;;22.70;88.20;;;;;;6338859;22;20374;-85
2022/07/27 13:43:11;;;;;;;2.58;0.25;;;22.40;88.60;;;;;;6337023;22;20022;-85
2022/07/27 13:45:37;;;;;;;2.20;0.20;;;22.30;89.00;;;;;;6337388;22;20022;-86
2022/07/27 13:48:03;;;;;;;7.03;0.30;;;22.30;87.50;;;;;;6336852;22;20028;-86
2022/07/27 13:50:29;;;;;;;2.15;0.20;;;22.10;88.50;;;;;;6337520;22;20433;-86
2022/07/27 13:52:54;;;;;;;1.42;0.20;;;22.10;90.10;;;;;;6310942;22;20014;-85
2022/07/27 13:55:20;;;;;;;0.52;0.20;;;21.80;87.80;;;;;;6337136;22;20041;-85
2022/07/27 13:57:49;;;;;;;2.00;0.30;;;22.30;87.30;;;;;;6337313;22;20019;-85
2022/07/27 14:00:15;;;;;;;0.63;0.13;;;22.60;89.70;;;;;;6337275;22;20057;-85
2022/07/27 14:02:41;;;;;;;1.63;0.40;;;22.70;87.50;;;;;;6339012;22;20011;-85
2022/07/27 14:05:08;;;;;;;0.70;0.10;;;23.20;88.10;;;;;;6336653;22;20467;-85
2022/07/27 14:07:34;;;;;;;2.45;0.20;;;23.20;87.50;;;;;;6311091;22;20072;-85
2022/07/27 14:12:47;;;;;;;2.72;0.45;;;22.90;86.90;;;;;;6338597;22;20341;-86
2022/07/27 14:15:12;;;;;;;1.30;0.10;;;22.60;86.60;;;;;;6338116;22;20108;-86
2022/07/27 14:17:38;;;;;;;0.95;0.20;;;23.40;83.10;;;;;;6336624;22;20015;-87
2022/07/27 14:20:05;;;;;;;0.77;0.20;;;23.40;84.10;;;;;;6336711;22;20019;-85
2022/07/27 14:22:33;;;;;;;3.47;0.30;;;23.50;85.50;;;;;;6337053;22;20050;-86
2022/07/27 14:24:59;;;;;;;3.22;0.30;;;23.20;85.00;;;;;;6336740;22;20345;-85
2022/07/27 14:27:24;;;;;;;1.85;0.20;;;23.10;86.80;;;;;;6310949;22;20014;-85
2022/07/27 14:29:50;;;;;;;2.55;0.28;;;23.20;89.50;;;;;;6338082;22;20485;-87
2022/07/27 14:32:16;;;;;;;1.55;0.20;;;23.40;86.40;;;;;;6337391;22;20038;-86
2022/07/27 14:34:42;;;;;;;2.65;0.20;;;23.50;84.60;;;;;;6340534;22;20380;-86
2022/07/27 14:37:08;;;;;;;1.42;0.30;;;23.40;84.40;;;;;;6316868;22;20105;-84
2022/07/27 14:39:33;;;;;;;0.52;0.00;;;23.50;84.30;;;;;;6370269;22;20024;-85
2022/07/27 14:41:59;;;;;;;2.72;0.17;;;23.30;83.50;;;;;;6343406;22;20515;-89
2022/07/27 14:44:25;;;;;;;1.63;0.20;;;23.40;84.40;;;;;;6342496;22;20022;-91
2022/07/27 14:46:50;;;;;;;2.10;0.13;;;23.20;83.10;;;;;;6370668;22;20015;-92
2022/07/27 14:49:20;;;;;;;0.88;0.20;;;23.10;83.80;;;;;;6370219;22;20026;-91
2022/07/27 14:51:46;;;;;;;2.05;0.20;;;23.20;85.40;;;;;;6342914;22;20010;-88
2022/07/27 14:57:37;;;;;;;1.25;0.20;;;23.40;85.00;;;;;;6326578;22;20054;-89
2022/07/27 15:00:12;;;;;;;1.33;0.10;;;23.10;83.50;;;;;;6338626;22;20027;-86
2022/07/27 15:02:52;;;;;;;1.35;0.10;;;22.60;82.50;;;;;;6339415;22;20046;-87
2022/07/27 15:05:18;;;;;;;0.45;0.10;;;22.30;82.10;;;;;;6312668;22;20026;-86
2022/07/27 15:07:46;;;;;;;1.23;0.10;;;22.00;83.80;;;;;;6285564;22;20019;-86
2022/07/27 15:10:12;;;;;;;2.97;0.20;;;21.70;84.10;;;;;;6310955;22;20018;-86
2022/07/27 15:12:40;;;;;;;2.90;0.40;;;21.60;85.60;;;;;;6339925;22;20495;-89
2022/07/27 15:15:08;;;;;;;0.60;0.20;;;21.70;85.10;;;;;;6311286;22;20054;-87
2022/07/27 15:17:35;;;;;;;4.57;0.20;;;22.00;83.20;;;;;;6339515;22;20077;-89
2022/07/27 15:20:08;;;;;;;0.30;0.10;;;22.30;83.80;;;;;;6316439;22;20019;-86
2022/07/27 15:28:21;;;;;;;0.85;0.10;;;22.60;84.10;;;;;;6340628;22;20021;-87
2022/07/27 15:30:47;;;;;;;1.45;0.10;;;22.40;82.90;;;;;;6286901;22;20071;-90
2022/07/27 15:54:01;;;;;;;0.30;0.10;;;22.30;83.30;;;;;;6333283;22;20027;-86
2022/07/27 15:56:26;;;;;;;0.60;0.20;;;22.20;86.70;;;;;;6309262;22;20445;-84
2022/07/27 15:58:52;;;;;;;3.92;0.10;;;22.10;85.60;;;;;;6309998;22;20057;-85
2022/07/27 16:01:18;;;;;;;2.33;0.30;;;22.20;88.20;;;;;;6337871;22;20015;-85
2022/07/27 16:03:48;;;;;;;2.40;0.30;;;22.60;84.40;;;;;;6283518;22;20018;-86
2022/07/27 16:06:14;;;;;;;1.20;0.20;;;22.50;84.20;;;;;;6310986;22;20055;-85
2022/07/27 16:08:40;;;;;;;1.80;0.30;;;21.70;85.30;;;;;;6286204;22;20015;-85
2022/07/27 16:11:06;;;;;;;1.20;0.30;;;21.80;86.70;;;;;;6338491;22;20144;-88
2022/07/27 16:13:33;;;;;;;1.27;0.20;;;21.30;86.90;;;;;;6311745;22;20022;-85
2022/07/27 16:18:45;;;;;;;2.72;0.25;;;21.20;88.20;;;;;;6338513;22;20353;-86
2022/07/27 16:21:13;;;;;;;0.98;0.20;;;21.50;88.10;;;;;;6311857;22;20081;-88
2022/07/27 16:23:39;;;;;;;0.85;0.20;;;21.50;87.00;;;;;;6311936;22;20379;-86
2022/07/27 16:42:15;;;;;;;0.80;0.20;;;21.10;88.20;;;;;;6321671;22;20026;-86
2022/07/27 16:45:04;;;;;;;0.63;0.20;;;21.10;87.40;;;;;;6308439;22;20445;-87
2022/07/27 16:48:00;;;;;;;0.70;0.10;;;20.70;87.40;;;;;;6311052;22;20014;-86
2022/07/27 16:56:49;;;;;;;1.20;0.20;;;21.00;89.10;;;;;;6216829;23;20024;-93
2022/07/27 16:59:15;;;;;;;0.45;0.25;;;20.90;90.00;;;;;;6218102;23;20020;-91
2022/07/27 17:01:50;;;;;;;2.75;0.30;;;20.70;88.10;;;;;;6347617;22;20015;-92
2022/07/27 17:09:26;;;;;;;0.40;0.13;;;20.40;89.60;;;;;;6320119;22;19915;-87
2022/07/27 17:12:21;;;;;;;1.25;0.20;;;20.40;90.00;;;;;;6311907;22;20019;-93
2022/07/27 17:14:56;;;;;;;1.17;0.20;;;20.20;90.60;;;;;;6339612;22;20023;-92
2022/07/27 17:17:34;;;;;;;1.45;0.30;;;19.80;91.00;;;;;;6311810;22;20019;-90
2022/07/27 17:23:11;;;;;;;0.80;0.30;;;20.00;90.90;;;;;;6308031;22;20024;-89
2022/07/27 17:26:12;;;;;;;;;;;;;;;;;;;;;
2022/07/27 18:03:11;;;;;;;;;;;;;;;;;;;;;
2022/07/27 18:13:09;;;;;;;0.82;0.17;;;18.40;93.90;;;;;;6330816;22;20026;-90
2022/07/27 18:33:10;;;;;;;;;;;17.60;94.80;;;;;;6338225;22;20031;-91
2022/07/27 20:28:25;;;;;;;0.30;0.10;;;14.90;99.90;;;;;;6335166;22;20457;-83
2022/07/27 20:30:51;;;;;;;3.33;0.30;;;14.70;99.90;;;;;;6312034;22;20023;-84
2022/07/27 20:33:21;;;;;;;1.50;0.20;;;14.60;99.90;;;;;;6310975;22;20136;-84
2022/07/27 20:35:47;;;;;;;0.85;0.20;;;14.60;99.90;;;;;;6311467;22;20022;-86
2022/07/27 20:38:23;;;;;;;1.85;0.30;;;14.60;99.90;;;;;;6310951;22;20011;-87
2022/07/27 20:47:22;;;;;;;1.02;0.30;;;14.40;99.90;;;;;;6334403;22;20072;-87
2022/07/27 20:56:59;;;;;;;0.40;0.20;;;14.20;99.90;;;;;;6317284;22;20080;-86
2022/07/27 20:59:56;;;;;;;0.75;0.10;;;14.10;99.90;;;;;;6247417;22;20102;-85
2022/07/27 21:02:50;;;;;;;0.80;0.40;;;14.00;99.90;;;;;;6244450;22;20393;-86
2022/07/27 21:05:52;;;;;;;;;;;;;;;;;;;;;
2022/07/27 21:09:10;;;;;;;1.48;0.20;;;14.50;99.90;;;;;;6273753;22;20066;-86
2022/07/27 21:11:45;;;;;;;0.60;0.20;;;14.40;99.90;;;;;;6247314;22;20055;-85
2022/07/27 21:14:11;;;;;;;0.45;0.40;;;13.70;99.90;;;;;;6248191;22;20016;-86
2022/07/27 21:16:42;;;;;;;2.13;0.20;;;13.70;99.90;;;;;;6248139;22;20027;-85
2022/07/27 21:22:01;;;;;;;1.20;0.80;;;13.50;99.90;;;;;;6331277;22;20023;-87
2022/07/27 21:24:28;;;;;;;0.50;0.20;;;13.40;99.90;;;;;;6337929;22;20015;-87
2022/07/27 21:27:08;;;;;;;3.10;0.20;;;13.30;99.90;;;;;;6310549;22;20011;-87
2022/07/27 21:29:34;;;;;;;2.15;0.20;;;13.20;99.90;;;;;;6310202;22;20019;-85
2022/07/27 21:31:59;;;;;;;0.10;0.10;;;13.10;99.90;;;;;;6337910;22;20059;-86
2022/07/27 21:34:28;;;;;;;0.30;0.20;;;13.10;99.90;;;;;;6310919;22;20010;-87
2022/07/27 21:36:54;;;;;;;0.38;0.30;;;13.30;99.90;;;;;;6310758;22;20022;-86
2022/07/27 21:39:49;;;;;;;;;;;;;;;;;;;;;
2022/07/27 21:42:31;;;;;;;1.42;0.30;;;12.90;99.90;;;;;;6243591;22;20018;-85
2022/07/27 21:44:57;;;;;;;0.75;0.20;;;12.80;99.90;;;;;;6369646;22;20344;-85
2022/07/27 21:47:23;;;;;;;0.35;0.25;;;12.70;99.90;;;;;;6342247;22;20129;-83
2022/07/27 21:49:49;;;;;;;2.75;0.30;;;12.70;99.90;;;;;;6341826;22;20089;-84
2022/07/27 21:52:14;;;;;;;0.30;0.30;;;12.70;99.90;;;;;;6369897;22;20383;-85
2022/07/27 21:54:40;;;;;;;0.50;0.30;;;12.70;99.90;;;;;;6370169;22;20018;-84
2022/07/27 21:57:06;;;;;;;0.70;0.35;;;12.70;99.90;;;;;;6342300;22;20029;-85
2022/07/27 21:59:31;;;;;;;1.17;0.30;;;12.70;99.90;;;;;;6369686;22;20054;-84
2022/07/27 22:01:59;;;;;;;2.78;0.43;;;12.60;99.90;;;;;;6342035;22;20018;-85
2022/07/27 22:04:25;;;;;;;1.25;0.40;;;12.60;99.90;;;;;;6369328;22;20493;-85
2022/07/27 22:06:51;;;;;;;0.88;0.30;;;12.60;99.90;;;;;;6341653;22;20097;-85
2022/07/27 22:09:18;;;;;;;0.45;0.20;;;12.60;99.90;;;;;;6342223;22;20054;-86
2022/07/27 22:11:45;;;;;;;2.95;0.20;;;12.70;99.90;;;;;;6315459;22;20085;-84
2022/07/27 22:14:11;;;;;;;0.73;0.28;;;12.70;99.90;;;;;;6370325;22;20172;-86
2022/07/27 22:16:37;;;;;;;0.95;0.20;;;12.70;99.90;;;;;;6342329;22;20409;-85
2022/07/27 22:19:03;;;;;;;0.90;0.35;;;12.70;99.90;;;;;;6341722;22;20140;-85
2022/07/27 22:21:29;;;;;;;0.43;0.30;;;12.70;99.90;;;;;;6342173;22;20076;-86
2022/07/27 22:23:55;;;;;;;1.35;0.38;;;12.70;99.90;;;;;;6339630;22;20371;-85
2022/07/27 22:26:21;;;;;;;0.60;0.40;;;12.50;99.90;;;;;;6341372;22;20474;-86
2022/07/27 22:28:47;;;;;;;0.80;0.40;;;12.60;99.90;;;;;;6341968;22;20014;-86
2022/07/27 22:31:13;;;;;;;2.85;0.80;;;12.60;99.90;;;;;;6341744;22;20386;-85
2022/07/27 22:33:39;;;;;;;1.10;0.40;;;12.60;99.90;;;;;;6370083;22;20010;-85
2022/07/27 22:36:08;;;;;;;2.35;0.40;;;12.60;99.90;;;;;;6342029;22;20029;-85
2022/07/27 22:38:34;;;;;;;1.65;0.52;;;12.60;99.90;;;;;;6341087;22;20046;-86
2022/07/27 22:40:59;;;;;;;1.08;0.40;;;12.60;99.90;;;;;;6369462;22;20022;-86
2022/07/27 22:43:25;;;;;;;1.15;0.57;;;12.50;99.90;;;;;;6341451;22;20018;-85
2022/07/27 22:45:51;;;;;;;0.73;0.50;;;12.50;99.90;;;;;;6369173;22;20093;-86
2022/07/27 22:48:17;;;;;;;1.15;0.40;;;12.50;99.90;;;;;;6341701;22;20014;-85
2022/07/27 22:50:44;;;;;;;0.77;0.40;;;12.50;99.90;;;;;;6341788;22;20321;-85
2022/07/27 22:53:10;;;;;;;0.85;0.40;;;12.40;99.90;;;;;;6340686;22;20516;-86
2022/07/27 22:55:39;;;;;;;0.40;0.30;;;12.40;99.90;;;;;;6341284;22;20064;-87
2022/07/27 22:58:08;;;;;;;1.92;0.50;;;12.70;99.90;;;;;;6341095;22;20014;-86
2022/07/27 23:00:37;;;;;;;0.73;0.40;;;13.00;99.90;;;;;;6340435;22;20018;-85
2022/07/27 23:03:05;;;;;;;0.50;0.40;;;12.40;99.90;;;;;;6368726;22;20499;-85
2022/07/27 23:05:31;;;;;;;0.50;0.40;;;12.50;99.90;;;;;;6341141;22;20357;-85
2022/07/27 23:07:56;;;;;;;1.80;0.57;;;12.40;99.90;;;;;;6338650;22;20021;-86
2022/07/27 23:13:07;;;;;;;1.02;0.50;;;12.30;99.90;;;;;;6368888;22;20022;-84
2022/07/27 23:15:33;;;;;;;0.98;0.40;;;12.30;99.90;;;;;;6341842;22;20024;-85
2022/07/27 23:18:01;;;;;;;1.20;0.43;;;12.20;99.90;;;;;;6343331;22;20045;-85
2022/07/27 23:20:27;;;;;;;1.20;0.50;;;12.20;99.90;;;;;;6343171;22;20149;-85
2022/07/27 23:22:53;;;;;;;2.70;0.60;;;11.90;99.90;;;;;;6370633;22;20088;-86
2022/07/27 23:25:23;;;;;;;2.45;0.70;;;12.10;99.90;;;;;;6343052;22;20183;-86
2022/07/27 23:27:52;;;;;;;2.30;0.60;;;12.10;99.90;;;;;;6371256;22;20072;-86
2022/07/27 23:30:23;;;;;;;3.13;0.77;;;12.00;99.90;;;;;;6371314;22;20020;-86
2022/07/27 23:32:56;;;;;;;1.52;0.90;;;12.10;99.90;;;;;;6343313;22;20027;-86
2022/07/27 23:35:22;;;;;;;2.60;0.93;;;12.50;99.90;;;;;;6341883;22;20085;-86
2022/07/27 23:37:51;;;;;;;2.75;0.80;;;12.00;99.90;;;;;;6343400;22;20014;-86
2022/07/27 23:40:17;;;;;;;3.80;1.00;;;12.10;99.90;;;;;;6342971;22;20060;-86
2022/07/27 23:42:43;;;;;;;2.90;1.00;;;12.00;99.90;;;;;;6371036;22;20010;-86
2022/07/27 23:45:09;;;;;;;3.33;1.35;;;12.00;99.90;;;;;;6343440;22;20101;-86
2022/07/27 23:47:40;;;;;;;2.65;1.00;;;11.90;99.90;;;;;;6342334;22;20011;-86
2022/07/27 23:50:08;;;;;;;2.75;1.00;;;12.00;99.90;;;;;;6342699;22;20021;-86
2022/07/27 23:52:37;;;;;;;2.17;1.05;;;11.70;99.90;;;;;;6342742;22;20018;-86
2022/07/27 23:55:05;;;;;;;1.27;0.88;;;11.90;99.90;;;;;;6343274;22;20029;-86
2022/07/27 23:57:31;;;;;;;1.02;0.55;;;11.90;99.90;;;;;;6317309;22;20053;-86
